createdAt,value
2018-02-15T00:00:09.113Z,32.30
2018-02-15T00:01:09.084Z,32.10
2018-02-15T00:02:09.047Z,35.60
2018-02-15T00:03:09.029Z,39.20
2018-02-15T00:04:08.975Z,31.20
2018-02-15T00:05:08.955Z,35.40
2018-02-15T00:06:08.916Z,36.10
2018-02-15T00:07:08.874Z,36.60
2018-02-15T00:08:08.846Z,32.60
2018-02-15T00:09:08.808Z,32.90
2018-02-15T00:10:08.775Z,33.50
2018-02-15T00:11:08.749Z,34.30
2018-02-15T00:12:08.712Z,34.60
2018-02-15T00:13:08.681Z,33.60
2018-02-15T00:14:08.643Z,36.50
2018-02-15T00:15:08.661Z,30.30
2018-02-15T00:16:08.834Z,33.10
2018-02-15T00:17:08.549Z,30.30
2018-02-15T00:18:08.514Z,32.00
2018-02-15T00:19:08.483Z,34.50
2018-02-15T00:20:08.449Z,34.40
2018-02-15T00:21:08.417Z,32.70
2018-02-15T00:22:08.384Z,31.30
2018-02-15T00:23:08.349Z,33.30
2018-02-15T00:24:08.318Z,28.70
2018-02-15T00:25:08.287Z,30.60
2018-02-15T00:26:08.241Z,31.40
2018-02-15T00:27:08.217Z,33.90
2018-02-15T00:28:08.540Z,33.30
2018-02-15T00:29:08.147Z,33.00
2018-02-15T00:30:08.117Z,31.00
2018-02-15T00:31:08.085Z,33.30
2018-02-15T00:32:08.057Z,32.50
2018-02-15T00:33:08.018Z,31.00
2018-02-15T00:34:07.982Z,29.10
2018-02-15T00:35:07.948Z,29.20
2018-02-15T00:36:07.920Z,34.30
2018-02-15T00:37:07.890Z,37.60
2018-02-15T00:38:08.119Z,28.10
2018-02-15T00:39:07.819Z,33.90
2018-02-15T00:40:07.782Z,32.00
2018-02-15T00:41:07.751Z,29.10
2018-02-15T00:42:07.720Z,31.40
2018-02-15T00:43:07.695Z,32.90
2018-02-15T00:44:07.655Z,30.20
2018-02-15T00:45:07.616Z,28.20
2018-02-15T00:46:07.602Z,31.50
2018-02-15T00:47:07.602Z,32.20
2018-02-15T00:48:07.524Z,27.90
2018-02-15T00:49:07.488Z,31.60
2018-02-15T00:50:07.456Z,31.30
2018-02-15T00:51:07.669Z,34.40
2018-02-15T00:52:07.391Z,29.80
2018-02-15T00:53:07.361Z,31.90
2018-02-15T00:54:07.328Z,30.20
2018-02-15T00:55:07.292Z,32.50
2018-02-15T00:56:07.259Z,29.00
2018-02-15T00:57:07.224Z,29.10
2018-02-15T00:58:07.191Z,29.90
2018-02-15T00:59:07.169Z,28.50
2018-02-15T01:00:07.128Z,29.50
2018-02-15T01:01:07.094Z,28.50
2018-02-15T01:02:07.072Z,33.30
2018-02-15T01:03:07.380Z,31.00
2018-02-15T01:04:06.997Z,37.70
2018-02-15T01:05:06.970Z,31.10
2018-02-15T01:06:06.931Z,31.10
2018-02-15T01:07:06.889Z,33.00
2018-02-15T01:08:06.860Z,30.30
2018-02-15T01:09:07.429Z,32.80
2018-02-15T01:10:06.804Z,31.30
2018-02-15T01:11:06.761Z,31.30
2018-02-15T01:12:06.730Z,27.20
2018-02-15T01:13:06.702Z,29.30
2018-02-15T01:14:06.660Z,31.50
2018-02-15T01:15:06.631Z,32.30
2018-02-15T01:16:06.601Z,30.90
2018-02-15T01:17:06.566Z,29.70
2018-02-15T01:18:06.531Z,31.70
2018-02-15T01:19:06.505Z,33.20
2018-02-15T01:20:06.473Z,31.50
2018-02-15T01:21:06.447Z,39.50
2018-02-15T01:22:06.402Z,32.90
2018-02-15T01:23:06.368Z,32.50
2018-02-15T01:24:06.334Z,32.20
2018-02-15T01:25:06.555Z,32.60
2018-02-15T01:26:06.267Z,27.60
2018-02-15T01:27:06.245Z,32.50
2018-02-15T01:28:06.210Z,26.90
2018-02-15T01:29:06.173Z,30.30
2018-02-15T01:30:06.141Z,33.00
2018-02-15T01:31:06.110Z,30.50
2018-02-15T01:32:06.074Z,30.40
2018-02-15T01:33:06.043Z,27.10
2018-02-15T01:34:06.008Z,34.60
2018-02-15T01:35:05.969Z,30.60
2018-02-15T01:36:05.985Z,31.10
2018-02-15T01:37:06.207Z,29.00
2018-02-15T01:38:05.869Z,33.90
2018-02-15T01:39:05.843Z,30.20
2018-02-15T01:40:05.816Z,33.80
2018-02-15T01:41:05.771Z,32.00
2018-02-15T01:42:05.745Z,38.90
2018-02-15T01:43:05.711Z,33.00
2018-02-15T01:44:05.682Z,30.60
2018-02-15T01:45:05.650Z,30.20
2018-02-15T01:46:05.616Z,36.10
2018-02-15T01:47:05.579Z,32.90
2018-02-15T01:48:05.563Z,32.20
2018-02-15T01:49:05.544Z,31.60
2018-02-15T01:50:05.483Z,34.10
2018-02-15T01:51:05.446Z,30.30
2018-02-15T01:52:05.417Z,31.00
2018-02-15T01:53:05.381Z,30.00
2018-02-15T01:54:05.346Z,33.30
2018-02-15T01:55:05.580Z,33.50
2018-02-15T01:56:05.290Z,32.10
2018-02-15T01:57:05.256Z,34.00
2018-02-15T01:58:05.213Z,28.90
2018-02-15T01:59:05.190Z,34.00
2018-02-15T02:00:05.158Z,32.40
2018-02-15T02:01:05.381Z,32.20
2018-02-15T02:02:05.086Z,32.90
2018-02-15T02:03:05.047Z,31.60
2018-02-15T02:04:05.021Z,33.10
2018-02-15T02:05:04.992Z,32.20
2018-02-15T02:06:04.955Z,35.20
2018-02-15T02:07:04.918Z,34.10
2018-02-15T02:08:04.888Z,36.20
2018-02-15T02:09:04.852Z,29.90
2018-02-15T02:10:04.818Z,34.10
2018-02-15T02:11:04.796Z,32.70
2018-02-15T02:12:04.756Z,33.20
2018-02-15T02:13:05.032Z,33.90
2018-02-15T02:14:04.692Z,33.70
2018-02-15T02:15:04.659Z,32.10
2018-02-15T02:16:04.629Z,34.60
2018-02-15T02:17:04.596Z,30.20
2018-02-15T02:18:04.820Z,33.20
2018-02-15T02:19:04.526Z,34.90
2018-02-15T02:20:04.494Z,36.10
2018-02-15T02:21:04.471Z,34.40
2018-02-15T02:22:04.434Z,30.10
2018-02-15T02:23:04.400Z,35.00
2018-02-15T02:24:04.364Z,33.40
2018-02-15T02:25:04.332Z,34.70
2018-02-15T02:26:04.296Z,32.40
2018-02-15T02:27:04.272Z,35.00
2018-02-15T02:28:04.237Z,29.70
2018-02-15T02:29:04.197Z,32.80
2018-02-15T02:30:04.165Z,35.80
2018-02-15T02:31:04.132Z,34.20
2018-02-15T02:32:04.104Z,36.20
2018-02-15T02:33:04.073Z,33.30
2018-02-15T02:34:04.038Z,33.90
2018-02-15T02:35:04.005Z,33.80
2018-02-15T02:36:04.274Z,34.20
2018-02-15T02:37:03.943Z,34.30
2018-02-15T02:38:03.903Z,35.70
2018-02-15T02:39:03.872Z,33.20
2018-02-15T02:40:03.838Z,30.50
2018-02-15T02:41:03.811Z,27.00
2018-02-15T02:42:03.774Z,29.40
2018-02-15T02:43:03.744Z,32.50
2018-02-15T02:44:03.716Z,33.60
2018-02-15T02:45:03.678Z,33.90
2018-02-15T02:46:03.639Z,33.10
2018-02-15T02:47:03.619Z,31.50
2018-02-15T02:48:03.881Z,32.70
2018-02-15T02:49:03.543Z,33.00
2018-02-15T02:50:03.515Z,32.10
2018-02-15T02:51:03.480Z,30.30
2018-02-15T02:52:03.447Z,36.80
2018-02-15T02:53:03.423Z,32.20
2018-02-15T02:54:03.635Z,33.10
2018-02-15T02:55:03.343Z,33.70
2018-02-15T02:56:03.315Z,34.90
2018-02-15T02:57:03.276Z,32.80
2018-02-15T02:58:03.246Z,34.10
2018-02-15T02:59:03.222Z,31.50
2018-02-15T03:00:03.185Z,34.50
2018-02-15T03:01:03.150Z,30.80
2018-02-15T03:02:03.117Z,36.50
2018-02-15T03:03:03.090Z,33.00
2018-02-15T03:04:03.058Z,33.20
2018-02-15T03:05:03.027Z,32.60
2018-02-15T03:06:02.985Z,33.50
2018-02-15T03:07:02.956Z,38.20
2018-02-15T03:08:02.921Z,31.90
2018-02-15T03:09:02.893Z,34.10
2018-02-15T03:10:02.856Z,36.90
2018-02-15T03:11:02.816Z,30.90
2018-02-15T03:12:02.792Z,29.00
2018-02-15T03:13:02.756Z,33.50
2018-02-15T03:14:02.721Z,33.70
2018-02-15T03:15:02.698Z,30.50
2018-02-15T03:16:02.660Z,35.60
2018-02-15T03:17:02.928Z,33.70
2018-02-15T03:18:02.589Z,34.60
2018-02-15T03:19:02.569Z,31.90
2018-02-15T03:20:02.533Z,34.00
2018-02-15T03:21:02.491Z,33.50
2018-02-15T03:22:02.462Z,33.30
2018-02-15T03:23:02.671Z,32.10
2018-02-15T03:24:02.395Z,34.50
2018-02-15T03:25:02.366Z,32.30
2018-02-15T03:26:02.328Z,35.20
2018-02-15T03:27:02.295Z,31.60
2018-02-15T03:28:02.264Z,32.70
2018-02-15T03:29:02.228Z,32.90
2018-02-15T03:30:02.194Z,30.20
2018-02-15T03:31:02.180Z,33.70
2018-02-15T03:32:02.140Z,34.30
2018-02-15T03:33:02.104Z,37.20
2018-02-15T03:34:02.075Z,33.40
2018-02-15T03:35:02.030Z,33.20
2018-02-15T03:36:02.000Z,37.50
2018-02-15T03:37:01.966Z,31.30
2018-02-15T03:38:01.929Z,33.30
2018-02-15T03:39:01.902Z,34.80
2018-02-15T03:40:02.173Z,36.80
2018-02-15T03:41:01.837Z,32.50
2018-02-15T03:42:01.801Z,31.40
2018-02-15T03:43:01.773Z,32.80
2018-02-15T03:44:01.742Z,33.60
2018-02-15T03:45:01.710Z,41.50
2018-02-15T03:46:01.670Z,33.50
2018-02-15T03:47:01.638Z,33.00
2018-02-15T03:48:01.607Z,35.60
2018-02-15T03:49:01.573Z,34.00
2018-02-15T03:50:01.545Z,36.90
2018-02-15T03:51:01.507Z,34.10
2018-02-15T03:52:01.771Z,34.60
2018-02-15T03:53:01.439Z,32.70
2018-02-15T03:54:01.407Z,33.20
2018-02-15T03:55:01.384Z,37.20
2018-02-15T03:56:01.348Z,31.90
2018-02-15T03:57:01.312Z,34.00
2018-02-15T03:58:01.272Z,35.60
2018-02-15T03:59:01.255Z,34.60
2018-02-15T04:00:01.212Z,34.80
2018-02-15T04:01:01.186Z,32.10
2018-02-15T04:02:01.151Z,35.30
2018-02-15T04:03:01.120Z,36.10
2018-02-15T04:04:01.388Z,41.20
2018-02-15T04:05:01.063Z,34.30
2018-02-15T04:06:01.017Z,32.20
2018-02-15T04:07:00.981Z,37.60
2018-02-15T04:08:00.951Z,33.40
2018-02-15T04:09:00.924Z,36.80
2018-02-15T04:10:01.229Z,38.30
2018-02-15T04:11:00.858Z,33.20
2018-02-15T04:12:00.818Z,33.20
2018-02-15T04:13:00.784Z,36.60
2018-02-15T04:14:00.753Z,34.60
2018-02-15T04:15:00.739Z,35.10
2018-02-15T04:16:00.702Z,33.80
2018-02-15T04:17:00.663Z,38.00
2018-02-15T04:18:00.627Z,33.00
2018-02-15T04:19:00.592Z,34.50
2018-02-15T04:20:00.559Z,36.40
2018-02-15T04:21:00.524Z,32.40
2018-02-15T04:22:00.492Z,35.60
2018-02-15T04:23:00.461Z,38.20
2018-02-15T04:24:00.429Z,33.30
2018-02-15T04:25:00.392Z,34.40
2018-02-15T04:26:00.360Z,33.60
2018-02-15T04:27:00.330Z,36.80
2018-02-15T04:28:00.299Z,38.10
2018-02-15T04:29:00.261Z,33.70
2018-02-15T04:30:00.228Z,39.20
2018-02-15T04:31:00.228Z,34.10
2018-02-15T04:32:00.165Z,33.50
2018-02-15T04:33:00.141Z,33.20
2018-02-15T04:34:00.119Z,38.40
2018-02-15T04:35:00.073Z,37.20
2018-02-15T04:36:00.033Z,32.80
2018-02-15T04:37:00.010Z,35.50
2018-02-15T04:37:59.971Z,39.30
2018-02-15T04:39:00.238Z,35.40
2018-02-15T04:39:59.898Z,36.30
2018-02-15T04:40:59.867Z,35.50
2018-02-15T04:41:59.837Z,35.40
2018-02-15T04:42:59.806Z,32.80
2018-02-15T04:43:59.771Z,34.60
2018-02-15T04:44:59.736Z,34.50
2018-02-15T04:45:59.699Z,35.40
2018-02-15T04:46:59.678Z,36.90
2018-02-15T04:47:59.639Z,39.60
2018-02-15T04:48:59.613Z,41.30
2018-02-15T04:49:59.588Z,31.30
2018-02-15T04:50:59.544Z,35.70
2018-02-15T04:51:59.506Z,38.70
2018-02-15T04:52:59.485Z,36.30
2018-02-15T04:53:59.445Z,34.80
2018-02-15T04:54:59.409Z,33.70
2018-02-15T04:55:59.377Z,35.40
2018-02-15T04:56:59.345Z,36.00
2018-02-15T04:57:59.313Z,37.80
2018-02-15T04:58:59.281Z,41.70
2018-02-15T04:59:59.245Z,39.40
2018-02-15T05:00:59.210Z,33.30
2018-02-15T05:01:59.180Z,35.70
2018-02-15T05:02:59.151Z,36.40
2018-02-15T05:03:59.123Z,33.70
2018-02-15T05:04:59.083Z,33.80
2018-02-15T05:05:59.059Z,34.80
2018-02-15T05:06:59.013Z,32.00
2018-02-15T05:07:58.979Z,35.80
2018-02-15T05:08:58.956Z,35.20
2018-02-15T05:09:58.914Z,33.80
2018-02-15T05:10:58.880Z,39.20
2018-02-15T05:11:58.854Z,35.70
2018-02-15T05:12:58.817Z,38.60
2018-02-15T05:13:58.794Z,34.30
2018-02-15T05:14:58.755Z,35.90
2018-02-15T05:15:58.720Z,37.80
2018-02-15T05:16:58.681Z,36.60
2018-02-15T05:17:58.655Z,36.00
2018-02-15T05:18:58.624Z,40.20
2018-02-15T05:19:58.591Z,35.30
2018-02-15T05:20:58.561Z,36.00
2018-02-15T05:21:58.523Z,35.50
2018-02-15T05:22:58.504Z,35.50
2018-02-15T05:23:58.454Z,36.50
2018-02-15T05:24:58.432Z,36.40
2018-02-15T05:25:58.395Z,38.30
2018-02-15T05:26:58.364Z,38.00
2018-02-15T05:27:58.328Z,34.30
2018-02-15T05:28:58.294Z,36.60
2018-02-15T05:29:58.260Z,39.90
2018-02-15T05:30:58.225Z,34.70
2018-02-15T05:31:58.196Z,36.40
2018-02-15T05:32:58.160Z,33.60
2018-02-15T05:33:58.129Z,39.70
2018-02-15T05:34:58.099Z,34.70
2018-02-15T05:35:58.071Z,36.90
2018-02-15T05:36:58.029Z,37.40
2018-02-15T05:37:57.999Z,38.20
2018-02-15T05:38:57.962Z,36.00
2018-02-15T05:39:57.933Z,35.10
2018-02-15T05:40:57.897Z,34.40
2018-02-15T05:41:57.863Z,34.90
2018-02-15T05:42:57.829Z,35.90
2018-02-15T05:43:57.802Z,38.50
2018-02-15T05:44:57.768Z,38.70
2018-02-15T05:45:57.736Z,37.30
2018-02-15T05:46:57.705Z,39.10
2018-02-15T05:47:57.662Z,41.70
2018-02-15T05:48:57.638Z,34.40
2018-02-15T05:49:57.599Z,38.90
2018-02-15T05:50:57.564Z,35.00
2018-02-15T05:51:57.533Z,33.70
2018-02-15T05:52:57.499Z,35.60
2018-02-15T05:53:57.469Z,36.00
2018-02-15T05:54:57.696Z,41.70
2018-02-15T05:55:57.406Z,37.20
2018-02-15T05:56:57.369Z,35.40
2018-02-15T05:57:57.336Z,35.30
2018-02-15T05:58:57.304Z,37.10
2018-02-15T05:59:57.273Z,39.70
2018-02-15T06:00:57.243Z,40.30
2018-02-15T06:01:57.202Z,41.60
2018-02-15T06:02:57.162Z,36.90
2018-02-15T06:03:57.130Z,38.50
2018-02-15T06:04:57.110Z,34.70
2018-02-15T06:05:57.071Z,45.00
2018-02-15T06:06:57.290Z,39.10
2018-02-15T06:07:57.002Z,38.30
2018-02-15T06:08:56.967Z,36.30
2018-02-15T06:09:56.934Z,38.10
2018-02-15T06:10:56.907Z,37.70
2018-02-15T06:11:56.876Z,39.80
2018-02-15T06:12:57.131Z,43.30
2018-02-15T06:13:56.804Z,39.90
2018-02-15T06:14:56.776Z,37.30
2018-02-15T06:15:56.740Z,36.40
2018-02-15T06:16:56.706Z,35.70
2018-02-15T06:17:56.672Z,36.60
2018-02-15T06:18:56.634Z,41.10
2018-02-15T06:19:56.602Z,36.70
2018-02-15T06:20:56.574Z,36.50
2018-02-15T06:21:56.543Z,39.10
2018-02-15T06:22:56.503Z,36.20
2018-02-15T06:23:56.824Z,35.80
2018-02-15T06:24:56.438Z,43.00
2018-02-15T06:25:56.402Z,43.80
2018-02-15T06:26:56.377Z,38.10
2018-02-15T06:27:56.342Z,41.80
2018-02-15T06:28:56.311Z,42.20
2018-02-15T06:29:56.567Z,42.30
2018-02-15T06:30:56.237Z,39.00
2018-02-15T06:31:56.209Z,36.10
2018-02-15T06:32:56.176Z,38.20
2018-02-15T06:33:56.138Z,40.10
2018-02-15T06:34:56.102Z,39.60
2018-02-15T06:35:56.080Z,41.90
2018-02-15T06:36:56.068Z,36.60
2018-02-15T06:37:56.007Z,39.20
2018-02-15T06:38:55.974Z,41.60
2018-02-15T06:39:55.950Z,40.40
2018-02-15T06:40:55.899Z,40.50
2018-02-15T06:41:55.864Z,40.80
2018-02-15T06:42:55.835Z,42.40
2018-02-15T06:43:55.803Z,40.90
2018-02-15T06:44:55.769Z,40.50
2018-02-15T06:45:55.734Z,40.40
2018-02-15T06:46:55.722Z,41.30
2018-02-15T06:47:55.679Z,44.60
2018-02-15T06:48:55.640Z,38.50
2018-02-15T06:49:55.604Z,37.90
2018-02-15T06:50:55.567Z,41.60
2018-02-15T06:51:55.537Z,41.00
2018-02-15T06:52:55.509Z,37.10
2018-02-15T06:53:55.473Z,39.70
2018-02-15T06:54:55.437Z,38.40
2018-02-15T06:55:55.404Z,43.90
2018-02-15T06:56:55.370Z,39.60
2018-02-15T06:57:55.334Z,40.60
2018-02-15T06:58:55.309Z,40.70
2018-02-15T06:59:55.270Z,40.10
2018-02-15T07:00:55.242Z,37.60
2018-02-15T07:01:55.202Z,38.20
2018-02-15T07:02:55.178Z,40.30
2018-02-15T07:03:55.143Z,40.20
2018-02-15T07:04:55.407Z,42.80
2018-02-15T07:05:55.083Z,40.00
2018-02-15T07:06:55.047Z,42.20
2018-02-15T07:07:55.008Z,37.70
2018-02-15T07:08:54.975Z,41.80
2018-02-15T07:09:54.947Z,38.10
2018-02-15T07:10:54.910Z,45.40
2018-02-15T07:11:54.874Z,42.60
2018-02-15T07:12:54.841Z,40.20
2018-02-15T07:13:54.809Z,39.90
2018-02-15T07:14:54.782Z,42.00
2018-02-15T07:15:54.756Z,41.20
2018-02-15T07:16:54.709Z,43.70
2018-02-15T07:17:54.676Z,42.90
2018-02-15T07:18:54.644Z,42.00
2018-02-15T07:19:54.614Z,40.00
2018-02-15T07:20:54.581Z,38.80
2018-02-15T07:21:54.544Z,43.20
2018-02-15T07:22:54.520Z,39.60
2018-02-15T07:23:54.483Z,39.00
2018-02-15T07:24:54.455Z,44.20
2018-02-15T07:25:54.424Z,42.30
2018-02-15T07:26:54.390Z,42.90
2018-02-15T07:27:54.350Z,39.60
2018-02-15T07:28:54.324Z,38.90
2018-02-15T07:29:54.287Z,35.80
2018-02-15T07:30:54.252Z,49.80
2018-02-15T07:31:54.225Z,43.70
2018-02-15T07:32:54.183Z,38.90
2018-02-15T07:33:54.154Z,41.90
2018-02-15T07:34:54.124Z,39.70
2018-02-15T07:35:54.090Z,38.60
2018-02-15T07:36:54.057Z,37.70
2018-02-15T07:37:54.031Z,38.00
2018-02-15T07:38:53.992Z,39.30
2018-02-15T07:39:54.257Z,38.90
2018-02-15T07:40:53.930Z,40.30
2018-02-15T07:41:53.894Z,39.00
2018-02-15T07:42:53.861Z,40.90
2018-02-15T07:43:53.830Z,41.10
2018-02-15T07:44:53.800Z,41.10
2018-02-15T07:45:53.763Z,44.50
2018-02-15T07:46:53.733Z,38.60
2018-02-15T07:47:53.702Z,47.60
2018-02-15T07:48:53.669Z,47.20
2018-02-15T07:49:53.635Z,40.00
2018-02-15T07:50:53.599Z,43.20
2018-02-15T07:51:53.816Z,42.00
2018-02-15T07:52:53.538Z,41.30
2018-02-15T07:53:53.507Z,42.80
2018-02-15T07:54:53.471Z,43.50
2018-02-15T07:55:53.447Z,44.30
2018-02-15T07:56:53.405Z,41.80
2018-02-15T07:57:53.373Z,41.10
2018-02-15T07:58:53.347Z,46.80
2018-02-15T07:59:53.310Z,39.70
2018-02-15T08:00:53.279Z,42.00
2018-02-15T08:01:53.247Z,46.70
2018-02-15T08:02:53.209Z,38.20
2018-02-15T08:03:53.176Z,38.70
2018-02-15T08:04:53.153Z,39.60
2018-02-15T08:05:53.118Z,41.50
2018-02-15T08:06:53.083Z,37.80
2018-02-15T08:07:53.046Z,40.50
2018-02-15T08:08:53.024Z,41.60
2018-02-15T08:09:52.985Z,42.20
2018-02-15T08:10:52.955Z,46.20
2018-02-15T08:11:52.929Z,41.50
2018-02-15T08:12:52.887Z,44.80
2018-02-15T08:13:52.857Z,41.00
2018-02-15T08:14:53.076Z,39.20
2018-02-15T08:15:52.810Z,43.20
2018-02-15T08:16:52.766Z,43.00
2018-02-15T08:17:52.730Z,41.50
2018-02-15T08:18:52.700Z,43.90
2018-02-15T08:19:52.671Z,37.20
2018-02-15T08:20:52.641Z,37.80
2018-02-15T08:21:52.608Z,38.60
2018-02-15T08:22:52.601Z,43.60
2018-02-15T08:23:52.535Z,37.50
2018-02-15T08:24:52.507Z,38.70
2018-02-15T08:25:52.472Z,44.30
2018-02-15T08:26:52.447Z,42.30
2018-02-15T08:27:52.423Z,44.80
2018-02-15T08:28:52.375Z,34.40
2018-02-15T08:29:52.346Z,35.70
2018-02-15T08:30:52.324Z,41.10
2018-02-15T08:31:52.287Z,41.60
2018-02-15T08:32:52.253Z,39.30
2018-02-15T08:33:52.227Z,41.60
2018-02-15T08:34:52.181Z,37.30
2018-02-15T08:35:52.154Z,41.00
2018-02-15T08:36:52.122Z,35.40
2018-02-15T08:37:52.127Z,38.90
2018-02-15T08:38:53.158Z,40.90
2018-02-15T08:39:52.023Z,35.10
2018-02-15T08:40:51.993Z,36.00
2018-02-15T08:41:51.978Z,40.70
2018-02-15T08:42:51.940Z,38.00
2018-02-15T08:43:51.914Z,34.80
2018-02-15T08:44:52.164Z,35.60
2018-02-15T08:45:51.833Z,46.40
2018-02-15T08:46:51.814Z,34.30
2018-02-15T08:47:51.786Z,37.90
2018-02-15T08:48:51.756Z,39.20
2018-02-15T08:49:51.721Z,37.60
2018-02-15T08:50:51.692Z,38.70
2018-02-15T08:51:51.646Z,41.80
2018-02-15T08:52:51.617Z,36.40
2018-02-15T08:53:51.592Z,37.80
2018-02-15T08:54:51.560Z,40.00
2018-02-15T08:55:51.518Z,37.50
2018-02-15T08:56:51.492Z,40.50
2018-02-15T08:57:51.456Z,38.60
2018-02-15T08:58:51.433Z,40.00
2018-02-15T08:59:51.408Z,42.80
2018-02-15T09:00:51.380Z,42.00
2018-02-15T09:01:51.334Z,34.20
2018-02-15T09:02:51.305Z,33.80
2018-02-15T09:03:51.279Z,37.60
2018-02-15T09:04:51.251Z,35.70
2018-02-15T09:05:51.213Z,39.60
2018-02-15T09:06:51.178Z,36.20
2018-02-15T09:07:51.148Z,38.60
2018-02-15T09:08:51.117Z,41.30
2018-02-15T09:09:51.085Z,38.10
2018-02-15T09:10:51.049Z,40.20
2018-02-15T09:11:51.027Z,36.40
2018-02-15T09:12:50.990Z,33.40
2018-02-15T09:13:50.959Z,37.40
2018-02-15T09:14:50.930Z,37.80
2018-02-15T09:15:50.908Z,35.60
2018-02-15T09:16:50.864Z,37.80
2018-02-15T09:17:50.836Z,39.60
2018-02-15T09:18:50.808Z,34.30
2018-02-15T09:19:50.782Z,35.90
2018-02-15T09:20:50.746Z,35.10
2018-02-15T09:21:50.713Z,35.80
2018-02-15T09:22:50.679Z,37.70
2018-02-15T09:23:50.646Z,35.00
2018-02-15T09:24:50.618Z,32.30
2018-02-15T09:25:50.589Z,35.10
2018-02-15T09:26:50.551Z,36.00
2018-02-15T09:27:50.528Z,36.30
2018-02-15T09:28:50.498Z,31.90
2018-02-15T09:29:50.460Z,40.40
2018-02-15T09:30:50.437Z,35.60
2018-02-15T09:31:50.403Z,39.90
2018-02-15T09:32:50.368Z,38.40
2018-02-15T09:33:50.333Z,46.40
2018-02-15T09:34:50.311Z,39.30
2018-02-15T09:35:50.291Z,36.40
2018-02-15T09:36:50.602Z,35.40
2018-02-15T09:37:50.225Z,34.40
2018-02-15T09:38:50.186Z,43.50
2018-02-15T09:39:50.151Z,39.70
2018-02-15T09:40:50.125Z,35.10
2018-02-15T09:41:50.094Z,43.20
2018-02-15T09:42:50.060Z,32.90
2018-02-15T09:43:50.030Z,38.00
2018-02-15T09:44:50.008Z,33.80
2018-02-15T09:45:49.964Z,37.70
2018-02-15T09:46:49.938Z,38.60
2018-02-15T09:47:49.921Z,40.70
2018-02-15T09:48:49.876Z,42.70
2018-02-15T09:49:49.846Z,36.60
2018-02-15T09:50:49.828Z,38.10
2018-02-15T09:51:49.786Z,39.80
2018-02-15T09:52:49.756Z,38.00
2018-02-15T09:53:49.971Z,35.20
2018-02-15T09:54:49.685Z,32.90
2018-02-15T09:55:49.665Z,37.90
2018-02-15T09:56:49.630Z,39.40
2018-02-15T09:57:49.607Z,36.50
2018-02-15T09:58:49.570Z,42.90
2018-02-15T09:59:49.540Z,35.40
2018-02-15T10:00:49.517Z,39.60
2018-02-15T10:01:49.482Z,38.20
2018-02-15T10:02:49.445Z,39.90
2018-02-15T10:03:49.417Z,39.90
2018-02-15T10:04:49.386Z,40.20
2018-02-15T10:05:49.656Z,37.30
2018-02-15T10:06:49.324Z,37.50
2018-02-15T10:07:49.290Z,31.90
2018-02-15T10:08:49.265Z,28.80
2018-02-15T10:09:49.236Z,35.90
2018-02-15T10:10:49.201Z,35.80
2018-02-15T10:11:49.173Z,33.30
2018-02-15T10:12:49.138Z,37.40
2018-02-15T10:13:49.107Z,40.90
2018-02-15T10:14:49.089Z,38.60
2018-02-15T10:15:49.049Z,35.10
2018-02-15T10:16:49.013Z,43.50
2018-02-15T10:17:48.982Z,37.50
2018-02-15T10:18:48.949Z,44.80
2018-02-15T10:19:48.934Z,43.70
2018-02-15T10:20:48.892Z,38.40
2018-02-15T10:21:48.858Z,34.50
2018-02-15T10:22:48.844Z,33.00
2018-02-15T10:23:48.801Z,44.70
2018-02-15T10:24:48.758Z,52.80
2018-02-15T10:25:48.736Z,37.30
2018-02-15T10:26:48.703Z,38.70
2018-02-15T10:27:48.672Z,40.00
2018-02-15T10:28:48.637Z,38.10
2018-02-15T10:29:48.944Z,32.20
2018-02-15T10:30:48.580Z,33.20
2018-02-15T10:31:48.550Z,36.30
2018-02-15T10:32:48.518Z,37.40
2018-02-15T10:33:48.494Z,41.20
2018-02-15T10:34:48.449Z,37.60
2018-02-15T10:35:48.427Z,36.70
2018-02-15T10:36:48.397Z,36.90
2018-02-15T10:37:48.361Z,34.60
2018-02-15T10:38:48.324Z,35.60
2018-02-15T10:39:48.294Z,38.50
2018-02-15T10:40:48.517Z,36.80
2018-02-15T10:41:48.249Z,36.80
2018-02-15T10:42:48.211Z,34.00
2018-02-15T10:43:48.180Z,37.50
2018-02-15T10:44:48.150Z,43.30
2018-02-15T10:45:48.109Z,35.80
2018-02-15T10:46:48.100Z,33.00
2018-02-15T10:47:48.068Z,42.30
2018-02-15T10:48:48.044Z,39.70
2018-02-15T10:49:47.990Z,35.40
2018-02-15T10:50:47.959Z,38.30
2018-02-15T10:51:47.927Z,36.00
2018-02-15T10:52:48.202Z,34.70
2018-02-15T10:53:47.880Z,42.80
2018-02-15T10:54:47.856Z,43.90
2018-02-15T10:55:47.808Z,38.40
2018-02-15T10:56:47.776Z,34.90
2018-02-15T10:57:47.749Z,38.20
2018-02-15T10:58:47.715Z,36.40
2018-02-15T10:59:47.686Z,33.80
2018-02-15T11:00:47.658Z,35.60
2018-02-15T11:01:47.626Z,35.70
2018-02-15T11:02:47.597Z,37.90
2018-02-15T11:03:47.568Z,35.60
2018-02-15T11:04:47.541Z,35.50
2018-02-15T11:05:47.500Z,39.10
2018-02-15T11:06:47.472Z,39.30
2018-02-15T11:07:47.451Z,38.90
2018-02-15T11:08:47.427Z,39.00
2018-02-15T11:09:47.396Z,35.80
2018-02-15T11:10:47.607Z,36.80
2018-02-15T11:11:47.330Z,36.30
2018-02-15T11:12:47.320Z,35.50
2018-02-15T11:13:47.256Z,37.30
2018-02-15T11:14:47.231Z,35.30
2018-02-15T11:15:47.252Z,44.60
2018-02-15T11:16:47.173Z,39.90
2018-02-15T11:17:47.139Z,35.60
2018-02-15T11:18:47.116Z,39.10
2018-02-15T11:19:47.094Z,36.70
2018-02-15T11:20:47.060Z,33.80
2018-02-15T11:21:47.057Z,35.00
2018-02-15T11:22:46.990Z,35.10
2018-02-15T11:23:46.964Z,38.80
2018-02-15T11:24:46.934Z,30.10
2018-02-15T11:25:46.898Z,33.30
2018-02-15T11:26:46.865Z,30.20
2018-02-15T11:27:46.839Z,32.90
2018-02-15T11:28:46.817Z,35.00
2018-02-15T11:29:46.783Z,33.70
2018-02-15T11:30:46.756Z,34.70
2018-02-15T11:31:46.721Z,32.90
2018-02-15T11:32:46.688Z,28.10
2018-02-15T11:33:46.658Z,35.70
2018-02-15T11:34:46.632Z,32.50
2018-02-15T11:35:46.690Z,30.00
2018-02-15T11:36:46.571Z,35.20
2018-02-15T11:37:46.547Z,34.40
2018-02-15T11:38:46.507Z,36.00
2018-02-15T11:39:46.482Z,31.20
2018-02-15T11:40:46.471Z,32.20
2018-02-15T11:41:46.439Z,29.60
2018-02-15T11:42:46.386Z,32.70
2018-02-15T11:43:46.391Z,34.10
2018-02-15T11:44:46.324Z,33.90
2018-02-15T11:45:46.293Z,30.60
2018-02-15T11:46:46.270Z,30.70
2018-02-15T11:47:46.253Z,32.70
2018-02-15T11:48:46.216Z,30.80
2018-02-15T11:49:46.179Z,31.00
2018-02-15T11:50:46.151Z,23.80
2018-02-15T11:51:46.123Z,32.80
2018-02-15T11:52:46.108Z,34.10
2018-02-15T11:53:46.058Z,27.90
2018-02-15T11:54:46.026Z,26.90
2018-02-15T11:55:45.996Z,31.80
2018-02-15T11:56:45.971Z,25.70
2018-02-15T11:57:45.934Z,25.70
2018-02-15T11:58:45.908Z,25.10
2018-02-15T11:59:45.873Z,29.40
2018-02-15T12:00:45.842Z,31.30
2018-02-15T12:01:45.811Z,31.30
2018-02-15T12:02:45.809Z,34.40
2018-02-15T12:03:45.777Z,36.30
2018-02-15T12:04:45.721Z,28.80
2018-02-15T12:05:45.688Z,32.40
2018-02-15T12:06:45.666Z,31.60
2018-02-15T12:07:45.641Z,40.50
2018-02-15T12:08:45.610Z,30.80
2018-02-15T12:09:45.568Z,30.00
2018-02-15T12:10:45.529Z,27.80
2018-02-15T12:11:45.504Z,30.60
2018-02-15T12:12:45.475Z,29.70
2018-02-15T12:13:45.462Z,31.80
2018-02-15T12:14:45.410Z,35.70
2018-02-15T12:15:45.374Z,32.50
2018-02-15T12:16:45.352Z,32.20
2018-02-15T12:17:45.314Z,38.80
2018-02-15T12:18:45.316Z,33.00
2018-02-15T12:19:45.261Z,33.60
2018-02-15T12:20:45.224Z,36.00
2018-02-15T12:21:45.196Z,42.70
2018-02-15T12:22:45.162Z,39.00
2018-02-15T12:23:45.151Z,34.20
2018-02-15T12:24:45.101Z,35.70
2018-02-15T12:25:45.323Z,36.10
2018-02-15T12:26:45.032Z,40.50
2018-02-15T12:27:45.002Z,37.50
2018-02-15T12:28:44.972Z,37.60
2018-02-15T12:29:44.952Z,39.70
2018-02-15T12:30:44.909Z,38.60
2018-02-15T12:31:44.878Z,37.70
2018-02-15T12:32:44.853Z,42.00
2018-02-15T12:33:44.820Z,41.00
2018-02-15T12:34:44.783Z,46.40
2018-02-15T12:35:44.753Z,37.30
2018-02-15T12:36:44.736Z,36.60
2018-02-15T12:37:44.696Z,40.90
2018-02-15T12:38:44.664Z,39.60
2018-02-15T12:39:44.630Z,38.30
2018-02-15T12:40:44.601Z,34.10
2018-02-15T12:41:44.568Z,40.70
2018-02-15T12:42:44.532Z,37.80
2018-02-15T12:43:44.531Z,38.20
2018-02-15T12:44:44.474Z,35.80
2018-02-15T12:45:44.440Z,37.80
2018-02-15T12:46:44.417Z,37.50
2018-02-15T12:47:44.373Z,42.50
2018-02-15T12:48:44.344Z,37.00
2018-02-15T12:49:44.313Z,38.30
2018-02-15T12:50:44.283Z,35.00
2018-02-15T12:51:44.262Z,36.00